Time;durP1;ratioP1;P1;durP2;ratioP2;P2;SDS_P1;SDS_P2;PMS_P1;PMS_P2;Temp;Humidity;BMP_temperature;BMP_pressure;BME280_temperature;BME280_humidity;BME280_pressure;Samples;Min_cycle;Max_cycle;Signal;HPM_P1;HPM_P2
2024/01/12 00:00:18;;;;;;;15.10;7.15;;;;;;;;;;5013058;28;20033;-76
2024/01/12 00:02:43;;;;;;;14.68;7.32;;;;;;;;;;5012710;28;20018;-75
2024/01/12 00:05:09;;;;;;;14.57;7.30;;;;;;;;;;5012834;28;20084;-75
2024/01/12 00:07:34;;;;;;;7.60;3.60;;;;;;;;;;5013083;28;20018;-75
2024/01/12 00:09:59;;;;;;;15.20;7.13;;;;;;;;;;5013257;28;20124;-76
2024/01/12 00:12:25;;;;;;;9.02;4.80;;;;;;;;;;5012850;28;20105;-76
2024/01/12 00:14:51;;;;;;;15.60;7.18;;;;;;;;;;4995032;28;20124;-76
2024/01/12 00:17:18;;;;;;;11.80;5.63;;;;;;;;;;4995150;28;20026;-76
2024/01/12 00:19:45;;;;;;;19.13;7.32;;;;;;;;;;5013022;28;20022;-76
2024/01/12 00:22:11;;;;;;;14.60;7.10;;;;;;;;;;5012820;28;20036;-74
2024/01/12 00:24:36;;;;;;;18.05;7.07;;;;;;;;;;5013316;28;20026;-75
2024/01/12 00:27:03;;;;;;;15.25;7.03;;;;;;;;;;5012758;28;20037;-75
2024/01/12 00:29:30;;;;;;;14.00;6.32;;;;;;;;;;5012476;28;20034;-76
2024/01/12 00:31:55;;;;;;;13.77;6.57;;;;;;;;;;4995328;28;20085;-76
2024/01/12 00:34:21;;;;;;;13.18;6.88;;;;;;;;;;5012641;28;20444;-75
2024/01/12 00:36:49;;;;;;;19.02;8.40;;;;;;;;;;5012514;28;20113;-75
2024/01/12 00:39:17;;;;;;;16.85;7.70;;;;;;;;;;5012651;28;20018;-75
2024/01/12 00:41:43;;;;;;;12.73;5.72;;;;;;;;;;5012492;28;20499;-75
2024/01/12 00:44:08;;;;;;;14.88;6.22;;;;;;;;;;5012478;28;20033;-75
2024/01/12 00:46:33;;;;;;;14.77;7.55;;;;;;;;;;5012594;28;20028;-77
2024/01/12 00:48:59;;;;;;;18.25;7.70;;;;;;;;;;5012466;28;20435;-77
2024/01/12 00:51:24;;;;;;;16.02;8.02;;;;;;;;;;5012535;28;20103;-77
2024/01/12 00:53:49;;;;;;;15.25;6.80;;;;;;;;;;5012504;28;20030;-77
2024/01/12 00:56:15;;;;;;;15.63;5.90;;;;;;;;;;5012422;28;20059;-75
2024/01/12 00:58:40;;;;;;;14.23;7.13;;;;;;;;;;5016036;28;20056;-76
2024/01/12 01:01:05;;;;;;;14.93;7.32;;;;;;;;;;5016571;28;20053;-73
2024/01/12 01:03:31;;;;;;;18.08;7.93;;;;;;;;;;5016484;28;20029;-76
2024/01/12 01:05:56;;;;;;;15.02;7.70;;;;;;;;;;5016106;28;20037;-76
2024/01/12 01:08:21;;;;;;;18.42;8.02;;;;;;;;;;5015808;28;20104;-75
2024/01/12 01:10:46;;;;;;;19.95;7.93;;;;;;;;;;5015761;28;20041;-76
2024/01/12 01:13:13;;;;;;;18.52;8.40;;;;;;;;;;4998389;28;20365;-76
2024/01/12 01:15:38;;;;;;;19.23;7.85;;;;;;;;;;5015046;28;20041;-75
2024/01/12 01:18:03;;;;;;;19.88;8.10;;;;;;;;;;5017110;28;20029;-77
2024/01/12 01:20:28;;;;;;;20.27;8.80;;;;;;;;;;5001802;28;20108;-77
2024/01/12 01:22:54;;;;;;;19.75;8.40;;;;;;;;;;5020771;28;20049;-78
2024/01/12 01:25:19;;;;;;;14.73;7.53;;;;;;;;;;5022559;28;20026;-78
2024/01/12 01:27:44;;;;;;;18.00;8.23;;;;;;;;;;5020894;28;20022;-78
2024/01/12 01:30:10;;;;;;;15.75;7.53;;;;;;;;;;5020540;28;20038;-78
2024/01/12 01:32:35;;;;;;;20.10;8.02;;;;;;;;;;5019983;28;20040;-77
2024/01/12 01:35:00;;;;;;;16.40;7.63;;;;;;;;;;5019077;28;20029;-77
2024/01/12 01:37:26;;;;;;;16.23;7.80;;;;;;;;;;5018948;28;20026;-77
2024/01/12 01:39:51;;;;;;;16.75;7.07;;;;;;;;;;5002250;28;20500;-77
2024/01/12 01:42:16;;;;;;;16.58;7.47;;;;;;;;;;5024694;28;20469;-77
2024/01/12 01:44:41;;;;;;;17.13;7.68;;;;;;;;;;5029099;28;20492;-77
2024/01/12 01:47:07;;;;;;;14.93;7.63;;;;;;;;;;5011807;28;20113;-77
2024/01/12 01:49:32;;;;;;;18.90;7.20;;;;;;;;;;5003505;28;20029;-77
2024/01/12 01:51:57;;;;;;;21.48;7.13;;;;;;;;;;4999567;28;20022;-78
2024/01/12 01:54:23;;;;;;;18.52;7.43;;;;;;;;;;5003058;28;20097;-78
2024/01/12 01:56:49;;;;;;;14.07;6.53;;;;;;;;;;5021101;28;20025;-78
2024/01/12 01:59:15;;;;;;;16.73;7.55;;;;;;;;;;5021689;28;20037;-78
2024/01/12 02:01:40;;;;;;;17.90;7.05;;;;;;;;;;5021747;28;20033;-78
2024/01/12 02:04:06;;;;;;;16.15;7.07;;;;;;;;;;5021575;28;20030;-77
2024/01/12 02:06:32;;;;;;;14.57;6.88;;;;;;;;;;5019766;28;20036;-77
2024/01/12 02:08:59;;;;;;;13.05;6.10;;;;;;;;;;5000387;28;20022;-77
2024/01/12 02:11:24;;;;;;;14.73;6.82;;;;;;;;;;5023833;28;20037;-78
2024/01/12 02:13:50;;;;;;;16.98;7.50;;;;;;;;;;5021082;28;20030;-78
2024/01/12 02:16:17;;;;;;;13.02;6.70;;;;;;;;;;5019949;28;20022;-77
2024/01/12 02:18:42;;;;;;;15.07;6.65;;;;;;;;;;5018750;28;20053;-77
2024/01/12 02:21:07;;;;;;;14.80;6.88;;;;;;;;;;5019106;28;20092;-77
2024/01/12 02:23:33;;;;;;;12.15;5.82;;;;;;;;;;5021912;28;20030;-78
2024/01/12 02:25:58;;;;;;;15.15;6.72;;;;;;;;;;5021530;28;20073;-77
2024/01/12 02:28:23;;;;;;;12.48;6.85;;;;;;;;;;5022816;28;20025;-79
2024/01/12 02:30:49;;;;;;;13.30;7.75;;;;;;;;;;5021868;28;20052;-77
2024/01/12 02:33:14;;;;;;;15.15;6.40;;;;;;;;;;5019470;28;20022;-77
2024/01/12 02:35:39;;;;;;;14.98;6.65;;;;;;;;;;5019271;28;20032;-77
2024/01/12 02:38:04;;;;;;;12.20;6.25;;;;;;;;;;5019119;28;20111;-76
2024/01/12 02:40:30;;;;;;;14.82;6.70;;;;;;;;;;5019102;28;20026;-77
2024/01/12 02:42:55;;;;;;;13.77;5.63;;;;;;;;;;5019091;28;20026;-77
2024/01/12 02:45:20;;;;;;;13.70;6.90;;;;;;;;;;5001029;28;20026;-78
2024/01/12 02:47:46;;;;;;;17.00;7.38;;;;;;;;;;5019039;28;20072;-78
2024/01/12 02:50:11;;;;;;;14.10;7.00;;;;;;;;;;5001022;28;20029;-78
2024/01/12 02:52:37;;;;;;;17.52;7.20;;;;;;;;;;5019909;28;20068;-78
2024/01/12 02:55:03;;;;;;;14.60;7.28;;;;;;;;;;5018985;28;20405;-78
2024/01/12 02:57:29;;;;;;;15.68;6.60;;;;;;;;;;5020850;28;20018;-79
2024/01/12 02:59:54;;;;;;;16.20;7.10;;;;;;;;;;5020606;28;20040;-78
2024/01/12 03:02:19;;;;;;;13.02;6.65;;;;;;;;;;5020621;28;20481;-77
2024/01/12 03:04:45;;;;;;;13.63;7.00;;;;;;;;;;5019012;28;20030;-78
2024/01/12 03:07:10;;;;;;;14.43;7.03;;;;;;;;;;5020492;28;20088;-78
2024/01/12 03:09:35;;;;;;;14.57;7.65;;;;;;;;;;5001305;28;20029;-77
2024/01/12 03:12:00;;;;;;;14.75;6.35;;;;;;;;;;5018117;28;20022;-77
2024/01/12 03:14:26;;;;;;;13.73;6.93;;;;;;;;;;5018522;28;20079;-78
2024/01/12 03:16:51;;;;;;;16.10;7.05;;;;;;;;;;5020057;28;20058;-78
2024/01/12 03:19:16;;;;;;;15.45;6.93;;;;;;;;;;5018452;28;20033;-77
2024/01/12 03:21:41;;;;;;;18.25;6.85;;;;;;;;;;5020064;28;20049;-78
2024/01/12 03:24:06;;;;;;;12.40;6.22;;;;;;;;;;5021713;28;20044;-78
2024/01/12 03:26:36;;;;;;;16.17;7.15;;;;;;;;;;5020572;28;20034;-78
2024/01/12 03:29:01;;;;;;;19.15;6.93;;;;;;;;;;5019400;28;20026;-77
2024/01/12 03:31:27;;;;;;;14.05;6.22;;;;;;;;;;5018633;28;20100;-78
2024/01/12 03:33:52;;;;;;;16.85;7.10;;;;;;;;;;5019746;28;20051;-78
2024/01/12 03:36:18;;;;;;;15.15;6.72;;;;;;;;;;5005436;28;20034;-78
2024/01/12 03:38:45;;;;;;;12.10;5.50;;;;;;;;;;5022289;28;20034;-78
2024/01/12 03:41:10;;;;;;;13.93;6.00;;;;;;;;;;5018124;28;20105;-77
2024/01/12 03:43:35;;;;;;;9.93;5.05;;;;;;;;;;5019308;28;20049;-78
2024/01/12 03:46:01;;;;;;;9.25;4.50;;;;;;;;;;5021495;28;20037;-78
2024/01/12 03:48:26;;;;;;;14.80;5.30;;;;;;;;;;5005204;28;20025;-78
2024/01/12 03:50:51;;;;;;;11.48;5.45;;;;;;;;;;5019162;28;20018;-77
2024/01/12 03:53:16;;;;;;;12.23;6.03;;;;;;;;;;5018535;28;20069;-78
2024/01/12 03:55:41;;;;;;;16.80;6.28;;;;;;;;;;5021890;28;20097;-78
2024/01/12 03:58:07;;;;;;;9.52;5.13;;;;;;;;;;5020244;28;20034;-78
2024/01/12 04:00:32;;;;;;;9.15;4.85;;;;;;;;;;5021148;28;20040;-78
2024/01/12 04:02:57;;;;;;;12.50;4.95;;;;;;;;;;5019390;28;20029;-78
2024/01/12 04:05:22;;;;;;;12.88;5.03;;;;;;;;;;5016924;28;20029;-78
2024/01/12 04:07:47;;;;;;;9.18;5.07;;;;;;;;;;5017438;28;20189;-78
2024/01/12 04:10:13;;;;;;;11.23;5.00;;;;;;;;;;5016357;28;20069;-77
2024/01/12 04:12:39;;;;;;;8.95;4.30;;;;;;;;;;5016836;28;20026;-77
2024/01/12 04:15:05;;;;;;;8.55;4.22;;;;;;;;;;5017508;28;20029;-78
2024/01/12 04:17:30;;;;;;;10.35;5.13;;;;;;;;;;5000156;28;20022;-78
2024/01/12 04:19:56;;;;;;;10.25;5.07;;;;;;;;;;5021082;28;20361;-78
2024/01/12 04:22:21;;;;;;;10.93;5.30;;;;;;;;;;5020796;28;20388;-79
2024/01/12 04:24:46;;;;;;;9.80;5.28;;;;;;;;;;5020276;28;20089;-78
2024/01/12 04:27:11;;;;;;;10.23;5.40;;;;;;;;;;5016951;28;20030;-77
2024/01/12 04:29:37;;;;;;;12.25;5.20;;;;;;;;;;5017897;28;20034;-78
2024/01/12 04:32:02;;;;;;;13.65;5.82;;;;;;;;;;5021316;28;20036;-78
2024/01/12 04:34:28;;;;;;;9.60;4.93;;;;;;;;;;5024004;28;20480;-78
2024/01/12 04:36:54;;;;;;;10.65;5.07;;;;;;;;;;5021846;28;20069;-78
2024/01/12 04:39:20;;;;;;;9.40;5.25;;;;;;;;;;5021475;28;20448;-78
2024/01/12 04:41:46;;;;;;;12.70;5.65;;;;;;;;;;5020996;28;20017;-77
2024/01/12 04:44:11;;;;;;;9.60;5.10;;;;;;;;;;5023382;28;20060;-78
2024/01/12 04:46:37;;;;;;;8.90;4.65;;;;;;;;;;5020934;28;20460;-78
2024/01/12 04:49:02;;;;;;;10.90;5.45;;;;;;;;;;5022401;28;20440;-76
2024/01/12 04:51:27;;;;;;;10.05;5.30;;;;;;;;;;5021222;28;20073;-77
2024/01/12 04:53:52;;;;;;;10.23;5.22;;;;;;;;;;5019129;28;20054;-77
2024/01/12 04:56:18;;;;;;;10.20;4.97;;;;;;;;;;5019904;28;20044;-78
2024/01/12 04:58:43;;;;;;;12.30;5.15;;;;;;;;;;5020207;28;20049;-78
2024/01/12 05:01:08;;;;;;;11.05;5.68;;;;;;;;;;5022009;28;20030;-77
2024/01/12 05:03:33;;;;;;;11.52;5.13;;;;;;;;;;5022115;28;20072;-77
2024/01/12 05:05:59;;;;;;;13.38;5.65;;;;;;;;;;5022857;28;20030;-78
2024/01/12 05:08:24;;;;;;;10.57;5.75;;;;;;;;;;5021404;28;20492;-78
2024/01/12 05:10:49;;;;;;;12.23;5.53;;;;;;;;;;5022338;28;20034;-78
2024/01/12 05:13:15;;;;;;;10.05;5.07;;;;;;;;;;5020402;28;20029;-77
2024/01/12 05:15:40;;;;;;;11.20;5.35;;;;;;;;;;5020720;28;20026;-77
2024/01/12 05:18:05;;;;;;;10.13;5.18;;;;;;;;;;5019054;28;20037;-77
2024/01/12 05:20:30;;;;;;;14.15;3.92;;;;;;;;;;5002416;28;20048;-78
2024/01/12 05:22:55;;;;;;;10.68;5.15;;;;;;;;;;5018752;28;20037;-78
2024/01/12 05:25:21;;;;;;;9.38;5.28;;;;;;;;;;5021867;28;20038;-79
2024/01/12 05:27:46;;;;;;;11.13;5.57;;;;;;;;;;5023811;28;20032;-78
2024/01/12 05:30:12;;;;;;;10.10;5.15;;;;;;;;;;5025032;28;20038;-79
2024/01/12 05:32:37;;;;;;;11.90;5.38;;;;;;;;;;5033107;28;20033;-77
2024/01/12 05:35:02;;;;;;;10.75;5.68;;;;;;;;;;5033627;28;20026;-77
2024/01/12 05:37:27;;;;;;;11.13;4.95;;;;;;;;;;5011690;28;20030;-78
2024/01/12 05:39:53;;;;;;;11.05;5.30;;;;;;;;;;5000686;28;20072;-79
2024/01/12 05:42:18;;;;;;;11.60;6.07;;;;;;;;;;5018056;28;20452;-77
2024/01/12 05:44:43;;;;;;;12.52;5.82;;;;;;;;;;5017663;28;20132;-77
2024/01/12 05:47:08;;;;;;;13.05;5.68;;;;;;;;;;5018083;28;20366;-78
2024/01/12 05:49:35;;;;;;;10.57;5.32;;;;;;;;;;5017901;28;20026;-77
2024/01/12 05:52:01;;;;;;;12.57;5.78;;;;;;;;;;5018215;28;20034;-77
2024/01/12 05:54:26;;;;;;;11.63;5.85;;;;;;;;;;5017679;28;20450;-78
2024/01/12 05:56:51;;;;;;;10.68;6.10;;;;;;;;;;5019735;28;20049;-77
2024/01/12 05:59:16;;;;;;;15.57;6.00;;;;;;;;;;5019307;28;20030;-77
2024/01/12 06:01:42;;;;;;;12.40;5.80;;;;;;;;;;5020649;28;20025;-78
2024/01/12 06:04:07;;;;;;;13.07;5.75;;;;;;;;;;5019423;28;20060;-77
2024/01/12 06:06:32;;;;;;;13.70;6.18;;;;;;;;;;5020690;28;20025;-78
2024/01/12 06:08:57;;;;;;;11.27;5.72;;;;;;;;;;5018021;28;20433;-80
2024/01/12 06:11:23;;;;;;;12.60;5.50;;;;;;;;;;5002506;28;20511;-78
2024/01/12 06:13:48;;;;;;;10.40;5.50;;;;;;;;;;5020260;28;20022;-77
2024/01/12 06:16:13;;;;;;;14.27;6.10;;;;;;;;;;5019080;28;20028;-77
2024/01/12 06:18:38;;;;;;;11.40;5.60;;;;;;;;;;5018512;28;20112;-78
2024/01/12 06:21:04;;;;;;;11.57;5.90;;;;;;;;;;5001801;28;20164;-78
2024/01/12 06:23:29;;;;;;;12.88;5.90;;;;;;;;;;5002167;28;20025;-79
2024/01/12 06:25:54;;;;;;;12.55;5.40;;;;;;;;;;5020489;28;20061;-78
2024/01/12 06:28:19;;;;;;;14.48;5.10;;;;;;;;;;5020214;28;20037;-78
2024/01/12 06:30:45;;;;;;;9.98;5.13;;;;;;;;;;5018974;28;20017;-79
2024/01/12 06:33:14;;;;;;;13.27;5.53;;;;;;;;;;5001263;28;20021;-77
2024/01/12 06:35:39;;;;;;;9.38;4.45;;;;;;;;;;5018968;28;20022;-78
2024/01/12 06:38:04;;;;;;;10.18;5.03;;;;;;;;;;5020141;28;20049;-78
2024/01/12 06:40:31;;;;;;;12.23;5.60;;;;;;;;;;5021408;28;20161;-79
2024/01/12 06:42:56;;;;;;;10.88;5.30;;;;;;;;;;5005008;28;20048;-78
2024/01/12 06:45:21;;;;;;;11.23;5.28;;;;;;;;;;5005566;28;20029;-80
2024/01/12 06:47:46;;;;;;;11.25;5.05;;;;;;;;;;5021788;28;20036;-78
2024/01/12 06:50:12;;;;;;;11.02;5.63;;;;;;;;;;5022109;28;20041;-78
2024/01/12 06:52:37;;;;;;;9.68;4.35;;;;;;;;;;5021733;28;20030;-79
2024/01/12 06:55:03;;;;;;;8.57;4.10;;;;;;;;;;5020955;28;20105;-80
2024/01/12 06:57:29;;;;;;;7.68;3.58;;;;;;;;;;5019267;28;20489;-79
2024/01/12 06:59:54;;;;;;;8.63;4.10;;;;;;;;;;5017860;28;20036;-78
2024/01/12 07:02:19;;;;;;;7.05;3.65;;;;;;;;;;5001286;28;20076;-77
2024/01/12 07:04:45;;;;;;;7.13;3.70;;;;;;;;;;5017849;28;20625;-77
2024/01/12 07:07:11;;;;;;;8.35;4.00;;;;;;;;;;5018870;28;20019;-78
2024/01/12 07:09:36;;;;;;;7.43;3.88;;;;;;;;;;5001456;28;20069;-79
2024/01/12 07:12:03;;;;;;;9.67;3.83;;;;;;;;;;5018749;28;20485;-77
2024/01/12 07:14:28;;;;;;;7.35;3.97;;;;;;;;;;5017266;28;20259;-77
2024/01/12 07:16:53;;;;;;;7.33;3.67;;;;;;;;;;4998444;28;20025;-77
2024/01/12 07:19:18;;;;;;;6.53;3.40;;;;;;;;;;5016991;28;20261;-77
2024/01/12 07:21:43;;;;;;;6.45;3.15;;;;;;;;;;5018236;28;20026;-77
2024/01/12 07:24:09;;;;;;;7.00;3.55;;;;;;;;;;5017790;28;20021;-79
2024/01/12 07:26:34;;;;;;;6.45;3.28;;;;;;;;;;5000558;28;20093;-78
2024/01/12 07:29:00;;;;;;;6.30;3.17;;;;;;;;;;5018436;28;20079;-81
2024/01/12 07:31:26;;;;;;;6.88;2.90;;;;;;;;;;5017950;28;20026;-81
2024/01/12 07:33:51;;;;;;;6.88;3.38;;;;;;;;;;5018217;28;20033;-80
2024/01/12 07:36:16;;;;;;;7.83;4.03;;;;;;;;;;5018009;28;20117;-81
2024/01/12 07:38:41;;;;;;;6.78;3.28;;;;;;;;;;5017378;28;20307;-81
2024/01/12 07:41:06;;;;;;;6.37;3.40;;;;;;;;;;4999695;28;20041;-80
2024/01/12 07:43:32;;;;;;;8.97;3.43;;;;;;;;;;5017184;28;20260;-81
2024/01/12 07:45:57;;;;;;;9.18;3.53;;;;;;;;;;5016365;28;20263;-79
2024/01/12 07:48:23;;;;;;;6.78;3.78;;;;;;;;;;5016349;28;20022;-79
2024/01/12 07:50:49;;;;;;;7.78;3.47;;;;;;;;;;5000084;28;20109;-80
2024/01/12 07:53:14;;;;;;;6.25;3.42;;;;;;;;;;5017163;28;20022;-80
2024/01/12 07:55:39;;;;;;;7.78;3.90;;;;;;;;;;5016749;28;20156;-81
2024/01/12 07:58:04;;;;;;;7.20;3.53;;;;;;;;;;5017125;28;20037;-82
2024/01/12 08:00:30;;;;;;;6.03;3.10;;;;;;;;;;5017255;28;20274;-79
2024/01/12 08:02:55;;;;;;;13.07;3.63;;;;;;;;;;4999403;28;20026;-80
2024/01/12 08:05:22;;;;;;;7.38;4.07;;;;;;;;;;5017443;28;20114;-81
2024/01/12 08:07:48;;;;;;;14.52;4.15;;;;;;;;;;5017643;28;20370;-80
2024/01/12 08:10:13;;;;;;;8.65;4.30;;;;;;;;;;4999407;28;20033;-80
2024/01/12 08:12:38;;;;;;;5.88;3.45;;;;;;;;;;5017682;28;20022;-80
2024/01/12 08:15:04;;;;;;;9.82;3.97;;;;;;;;;;5016980;28;20025;-79
2024/01/12 08:17:29;;;;;;;9.35;4.20;;;;;;;;;;4999565;28;20057;-80
2024/01/12 08:19:54;;;;;;;7.70;4.30;;;;;;;;;;4999969;28;20088;-79
2024/01/12 08:22:20;;;;;;;5.93;3.40;;;;;;;;;;5016126;28;20029;-79
2024/01/12 08:24:45;;;;;;;9.77;4.03;;;;;;;;;;5015434;28;20263;-78
2024/01/12 08:27:10;;;;;;;10.82;4.18;;;;;;;;;;4997935;28;20757;-79
2024/01/12 08:29:35;;;;;;;7.70;4.32;;;;;;;;;;5015446;28;20536;-78
2024/01/12 08:32:01;;;;;;;8.00;4.20;;;;;;;;;;4998139;28;20428;-78
2024/01/12 08:34:26;;;;;;;7.20;3.97;;;;;;;;;;4997925;28;20682;-78
2024/01/12 08:36:51;;;;;;;7.38;4.10;;;;;;;;;;5014375;28;20678;-78
2024/01/12 08:39:17;;;;;;;8.50;3.90;;;;;;;;;;5015119;28;20049;-78
2024/01/12 08:41:43;;;;;;;8.75;3.85;;;;;;;;;;5015326;28;20287;-79
2024/01/12 08:44:08;;;;;;;11.18;4.53;;;;;;;;;;5015704;28;20030;-78
2024/01/12 08:46:33;;;;;;;7.20;3.80;;;;;;;;;;4997347;28;20080;-79
2024/01/12 08:49:00;;;;;;;7.85;3.85;;;;;;;;;;5015715;28;20263;-82
2024/01/12 08:51:25;;;;;;;7.32;3.95;;;;;;;;;;5015852;28;20021;-80
2024/01/12 08:53:50;;;;;;;9.43;4.15;;;;;;;;;;5017000;28;20105;-78
2024/01/12 08:56:15;;;;;;;8.23;4.18;;;;;;;;;;5016951;28;20034;-79
2024/01/12 08:58:41;;;;;;;4.77;2.67;;;;;;;;;;5000469;28;20026;-80
2024/01/12 09:01:06;;;;;;;11.40;4.90;;;;;;;;;;5016001;28;20267;-81
2024/01/12 09:03:31;;;;;;;8.93;4.68;;;;;;;;;;5016056;28;20029;-80
2024/01/12 09:05:56;;;;;;;9.20;4.75;;;;;;;;;;4999035;28;20097;-79
2024/01/12 09:08:22;;;;;;;8.63;4.05;;;;;;;;;;5016383;28;20420;-79
2024/01/12 09:10:47;;;;;;;8.10;4.53;;;;;;;;;;5016389;28;20033;-79
2024/01/12 09:13:12;;;;;;;8.27;4.03;;;;;;;;;;4999917;28;20025;-79
2024/01/12 09:15:37;;;;;;;8.50;4.27;;;;;;;;;;5016476;28;20030;-80
2024/01/12 09:18:03;;;;;;;6.87;3.80;;;;;;;;;;5017968;28;20632;-80
2024/01/12 09:20:29;;;;;;;8.05;4.65;;;;;;;;;;5023699;28;20267;-78
2024/01/12 09:22:54;;;;;;;6.18;3.88;;;;;;;;;;5039596;28;20045;-78
2024/01/12 09:25:19;;;;;;;6.25;3.63;;;;;;;;;;5022238;28;20034;-78
2024/01/12 09:27:44;;;;;;;5.97;3.67;;;;;;;;;;5031728;28;20080;-78
2024/01/12 09:30:10;;;;;;;6.17;3.87;;;;;;;;;;4999708;28;20025;-81
2024/01/12 09:32:35;;;;;;;5.97;3.42;;;;;;;;;;4998983;28;20259;-81
2024/01/12 09:35:00;;;;;;;5.33;3.30;;;;;;;;;;4998819;28;20049;-80
2024/01/12 09:37:26;;;;;;;7.73;2.57;;;;;;;;;;5016656;28;20272;-80
2024/01/12 09:39:51;;;;;;;8.68;3.40;;;;;;;;;;5016971;28;20255;-80
2024/01/12 09:42:17;;;;;;;7.40;3.97;;;;;;;;;;4999672;28;20050;-79
2024/01/12 09:44:47;;;;;;;7.68;3.83;;;;;;;;;;5017277;28;20036;-78
2024/01/12 09:47:12;;;;;;;5.63;2.88;;;;;;;;;;5016809;28;20081;-80
2024/01/12 09:49:38;;;;;;;6.93;2.90;;;;;;;;;;5016865;28;20034;-78
2024/01/12 09:52:07;;;;;;;4.88;2.90;;;;;;;;;;5016861;28;20072;-79
2024/01/12 09:54:34;;;;;;;5.53;2.75;;;;;;;;;;4999263;28;20053;-81
2024/01/12 09:57:00;;;;;;;5.80;2.85;;;;;;;;;;5000231;28;20026;-80
2024/01/12 09:59:27;;;;;;;4.85;2.47;;;;;;;;;;5017008;28;20129;-80
2024/01/12 10:01:52;;;;;;;6.15;2.83;;;;;;;;;;5017320;28;20037;-80
2024/01/12 10:04:17;;;;;;;5.80;3.05;;;;;;;;;;4999198;28;20030;-81
2024/01/12 10:06:43;;;;;;;5.82;3.20;;;;;;;;;;5015763;28;20100;-79
2024/01/12 10:09:09;;;;;;;6.57;2.60;;;;;;;;;;5016000;28;20026;-79
2024/01/12 10:11:34;;;;;;;5.13;2.90;;;;;;;;;;4998241;28;20263;-82
2024/01/12 10:14:00;;;;;;;5.35;2.78;;;;;;;;;;4999693;28;20044;-81
2024/01/12 10:16:29;;;;;;;9.20;3.07;;;;;;;;;;5016875;28;20026;-80
2024/01/12 10:18:57;;;;;;;4.63;2.97;;;;;;;;;;5017657;28;20769;-82
2024/01/12 10:21:24;;;;;;;6.65;3.15;;;;;;;;;;5017096;28;20095;-80
2024/01/12 10:24:10;;;;;;;7.07;2.97;;;;;;;;;;5016499;28;20105;-79
2024/01/12 10:26:35;;;;;;;4.95;2.55;;;;;;;;;;4964422;28;1003414;-80
2024/01/12 10:29:02;;;;;;;6.13;3.08;;;;;;;;;;5019638;28;20032;-77
2024/01/12 10:31:28;;;;;;;7.38;3.42;;;;;;;;;;5024920;28;20022;-80
2024/01/12 10:33:56;;;;;;;6.90;3.35;;;;;;;;;;5026583;28;20034;-80
2024/01/12 10:36:21;;;;;;;10.27;3.40;;;;;;;;;;5023709;28;20080;-79
2024/01/12 10:38:48;;;;;;;4.28;2.78;;;;;;;;;;5025592;28;20409;-79
2024/01/12 10:41:18;;;;;;;6.78;3.22;;;;;;;;;;5023685;28;20066;-79
2024/01/12 10:43:44;;;;;;;8.07;3.72;;;;;;;;;;5022049;28;20026;-78
2024/01/12 10:46:11;;;;;;;5.72;3.22;;;;;;;;;;5002417;28;20100;-79
2024/01/12 10:48:46;;;;;;;5.80;3.40;;;;;;;;;;5019819;28;20033;-78
2024/01/12 10:51:14;;;;;;;6.95;3.60;;;;;;;;;;5002727;28;20028;-79
2024/01/12 10:53:52;;;;;;;6.53;3.40;;;;;;;;;;5002958;28;20022;-79
2024/01/12 10:56:18;;;;;;;7.03;3.78;;;;;;;;;;5020643;28;20021;-78
2024/01/12 10:58:45;;;;;;;8.00;3.45;;;;;;;;;;5003311;28;20140;-80
2024/01/12 11:01:11;;;;;;;8.20;4.00;;;;;;;;;;5004160;28;20386;-79
2024/01/12 11:03:37;;;;;;;10.38;4.63;;;;;;;;;;5020220;28;20150;-79
2024/01/12 11:06:04;;;;;;;8.23;4.60;;;;;;;;;;5001109;28;20022;-78
2024/01/12 11:08:30;;;;;;;10.63;4.60;;;;;;;;;;5022270;28;20143;-80
2024/01/12 11:10:57;;;;;;;11.65;5.32;;;;;;;;;;5004214;28;20030;-77
2024/01/12 11:13:23;;;;;;;10.82;5.35;;;;;;;;;;5006242;28;20516;-79
2024/01/12 11:15:51;;;;;;;8.32;3.97;;;;;;;;;;5023007;28;20029;-78
2024/01/12 11:18:17;;;;;;;10.07;4.85;;;;;;;;;;5020485;28;20032;-79
2024/01/12 11:20:45;;;;;;;8.02;4.05;;;;;;;;;;5020908;28;20048;-78
2024/01/12 11:23:10;;;;;;;8.60;4.28;;;;;;;;;;5002181;28;20025;-80
2024/01/12 11:25:35;;;;;;;11.40;5.22;;;;;;;;;;5002091;28;20045;-79
2024/01/12 11:28:01;;;;;;;10.68;4.45;;;;;;;;;;5000693;28;20026;-79
2024/01/12 11:30:28;;;;;;;8.63;4.28;;;;;;;;;;5019407;28;20022;-81
2024/01/12 11:33:06;;;;;;;10.85;4.90;;;;;;;;;;5020126;28;20026;-79
2024/01/12 11:35:32;;;;;;;9.32;4.30;;;;;;;;;;5021855;28;20021;-78
2024/01/12 11:38:07;;;;;;;10.02;4.50;;;;;;;;;;5019002;28;20088;-79
2024/01/12 11:40:33;;;;;;;9.90;4.25;;;;;;;;;;5018608;28;20025;-79
2024/01/12 11:43:00;;;;;;;14.80;4.00;;;;;;;;;;5002204;28;20036;-81
2024/01/12 11:45:25;;;;;;;6.28;3.72;;;;;;;;;;5020821;28;20022;-79
2024/01/12 11:47:50;;;;;;;7.13;3.47;;;;;;;;;;5023394;28;20029;-80
2024/01/12 11:50:16;;;;;;;7.33;3.27;;;;;;;;;;5001665;28;20480;-80
2024/01/12 11:52:42;;;;;;;7.50;3.97;;;;;;;;;;5018943;28;20266;-79
2024/01/12 11:55:09;;;;;;;7.32;3.60;;;;;;;;;;5018228;28;20080;-78
2024/01/12 11:57:35;;;;;;;6.70;3.30;;;;;;;;;;5017628;28;20477;-79
2024/01/12 12:00:05;;;;;;;8.13;3.45;;;;;;;;;;5020819;28;20034;-79
2024/01/12 12:02:31;;;;;;;9.35;4.85;;;;;;;;;;5007077;28;20049;-78
2024/01/12 12:04:56;;;;;;;5.13;2.55;;;;;;;;;;5001731;28;20477;-82
2024/01/12 12:07:25;;;;;;;3.03;1.88;;;;;;;;;;5001703;28;20041;-78
2024/01/12 12:09:51;;;;;;;6.40;3.30;;;;;;;;;;5018928;28;20022;-78
2024/01/12 12:12:16;;;;;;;7.75;3.47;;;;;;;;;;5024203;28;20113;-78
2024/01/12 12:15:14;;;;;;;6.72;3.33;;;;;;;;;;5026772;28;20029;-79
2024/01/12 12:17:48;;;;;;;6.63;3.00;;;;;;;;;;5003978;28;20034;-79
2024/01/12 12:20:23;;;;;;;;;;;;;;;;;;5026338;28;20116;-79
2024/01/12 12:22:49;;;;;;;;;;;;;;;;;;5004719;28;19928;-77
2024/01/12 12:25:16;;;;;;;6.40;2.95;;;;;;;;;;5009266;28;20387;-77
2024/01/12 12:27:46;;;;;;;5.95;2.92;;;;;;;;;;5021139;28;20080;-80
2024/01/12 12:30:15;;;;;;;7.25;3.70;;;;;;;;;;4999818;28;20025;-77
2024/01/12 12:32:50;;;;;;;7.95;3.90;;;;;;;;;;4999367;28;20457;-78
2024/01/12 12:35:22;;;;;;;10.10;4.75;;;;;;;;;;5016821;28;20105;-76
2024/01/12 12:37:52;;;;;;;5.55;3.40;;;;;;;;;;5001530;28;20173;-78
2024/01/12 12:40:23;;;;;;;9.73;4.28;;;;;;;;;;5020954;28;20053;-79
2024/01/12 12:42:52;;;;;;;11.43;4.78;;;;;;;;;;5002572;28;20042;-79
2024/01/12 12:45:20;;;;;;;9.45;4.60;;;;;;;;;;5001504;28;20038;-78
2024/01/12 12:47:48;;;;;;;11.18;4.35;;;;;;;;;;5019123;28;20089;-80
2024/01/12 12:50:19;;;;;;;9.75;4.50;;;;;;;;;;5002138;28;20036;-78
2024/01/12 12:52:51;;;;;;;7.90;4.30;;;;;;;;;;5003088;28;20107;-79
2024/01/12 12:55:19;;;;;;;10.65;5.10;;;;;;;;;;5020116;28;20049;-74
2024/01/12 12:57:45;;;;;;;10.63;4.68;;;;;;;;;;5002345;28;20053;-75
2024/01/12 13:00:14;;;;;;;11.85;4.45;;;;;;;;;;4999305;28;20081;-74
2024/01/12 13:02:39;;;;;;;7.88;3.75;;;;;;;;;;4999663;28;20060;-74
2024/01/12 13:05:06;;;;;;;7.03;3.42;;;;;;;;;;5000306;28;20057;-75
2024/01/12 13:07:31;;;;;;;5.72;3.03;;;;;;;;;;5003555;28;20030;-75
2024/01/12 13:09:57;;;;;;;9.15;4.15;;;;;;;;;;4999374;28;20076;-77
2024/01/12 13:12:23;;;;;;;10.30;4.55;;;;;;;;;;5000873;28;20100;-78
2024/01/12 13:14:48;;;;;;;11.25;4.53;;;;;;;;;;5002004;28;20057;-82
2024/01/12 13:17:17;;;;;;;8.68;4.65;;;;;;;;;;5004085;28;20034;-79
2024/01/12 13:19:43;;;;;;;10.20;4.97;;;;;;;;;;5017402;28;20026;-76
2024/01/12 13:22:09;;;;;;;11.07;4.88;;;;;;;;;;5000200;28;20034;-77
2024/01/12 13:24:37;;;;;;;10.57;4.70;;;;;;;;;;5001964;28;20057;-79
2024/01/12 13:27:13;;;;;;;13.13;5.22;;;;;;;;;;5003249;28;20093;-78
2024/01/12 13:29:39;;;;;;;12.13;4.95;;;;;;;;;;5002949;28;20036;-80
2024/01/12 13:32:14;;;;;;;10.73;4.70;;;;;;;;;;5002466;28;20400;-79
2024/01/12 13:34:48;;;;;;;11.68;5.05;;;;;;;;;;5005266;28;20032;-79
2024/01/12 13:37:19;;;;;;;11.45;5.07;;;;;;;;;;5016987;28;20029;-75
2024/01/12 13:39:46;;;;;;;13.25;4.82;;;;;;;;;;5016628;28;20160;-75
2024/01/12 13:42:12;;;;;;;11.30;4.35;;;;;;;;;;4997838;28;20037;-76
2024/01/12 13:44:37;;;;;;;12.50;4.95;;;;;;;;;;4996657;28;20030;-77
2024/01/12 13:47:04;;;;;;;12.15;4.70;;;;;;;;;;4998684;28;20408;-79
2024/01/12 13:49:38;;;;;;;10.10;4.88;;;;;;;;;;4997808;28;20088;-77
2024/01/12 13:52:04;;;;;;;13.15;4.97;;;;;;;;;;5017971;28;20104;-77
2024/01/12 13:54:37;;;;;;;10.65;4.95;;;;;;;;;;4998002;28;20528;-76
2024/01/12 13:57:03;;;;;;;15.43;5.28;;;;;;;;;;4998677;28;20480;-77
2024/01/12 13:59:28;;;;;;;13.77;4.82;;;;;;;;;;5017781;28;20065;-77
2024/01/12 14:01:54;;;;;;;10.43;5.30;;;;;;;;;;5018726;28;20022;-77
2024/01/12 14:04:19;;;;;;;18.70;9.85;;;;;;;;;;5001468;28;20026;-77
2024/01/12 14:06:45;;;;;;;12.18;5.53;;;;;;;;;;5018433;28;20033;-76
2024/01/12 14:09:14;;;;;;;10.43;5.15;;;;;;;;;;5015615;28;20022;-76
2024/01/12 14:11:43;;;;;;;12.23;4.82;;;;;;;;;;5016406;28;20025;-77
2024/01/12 14:14:11;;;;;;;12.13;5.97;;;;;;;;;;4996510;28;20045;-77
2024/01/12 14:16:50;;;;;;;12.93;5.07;;;;;;;;;;4983962;28;20022;-78
2024/01/12 14:19:23;;;;;;;11.43;5.63;;;;;;;;;;4984098;28;20030;-78
2024/01/12 14:21:50;;;;;;;10.55;5.25;;;;;;;;;;5016431;28;20505;-77
2024/01/12 14:24:38;;;;;;;14.98;5.40;;;;;;;;;;5017231;28;20045;-78
2024/01/12 14:27:04;;;;;;;13.35;6.00;;;;;;;;;;4995510;28;20046;-79
2024/01/12 14:29:29;;;;;;;14.23;6.22;;;;;;;;;;5020176;28;20029;-80